sensor_id;sensor_type;location;lat;lon;timestamp;pressure;altitude;pressure_sealevel;temperature;humidity
62057;BME280;48016;50.284;18.860;2023-05-01T00:02:07;98659.36;;;5.54;56.91
62057;BME280;48016;50.284;18.860;2023-05-01T00:04:34;98659.50;;;5.51;56.78
62057;BME280;48016;50.284;18.860;2023-05-01T00:07:01;98661.86;;;5.49;56.45
62057;BME280;48016;50.284;18.860;2023-05-01T00:09:27;98660.45;;;5.49;56.30
62057;BME280;48016;50.284;18.860;2023-05-01T00:11:54;98659.27;;;5.47;57.18
62057;BME280;48016;50.284;18.860;2023-05-01T00:14:21;98658.09;;;5.42;57.42
62057;BME280;48016;50.284;18.860;2023-05-01T00:16:47;98656.59;;;5.37;57.89
62057;BME280;48016;50.284;18.860;2023-05-01T00:19:14;98653.73;;;5.29;58.11
62057;BME280;48016;50.284;18.860;2023-05-01T00:21:45;98653.88;;;5.22;58.54
62057;BME280;48016;50.284;18.860;2023-05-01T00:24:14;98655.67;;;5.14;58.29
62057;BME280;48016;50.284;18.860;2023-05-01T00:26:42;98657.23;;;5.09;58.48
62057;BME280;48016;50.284;18.860;2023-05-01T00:29:09;98655.98;;;5.05;58.71
62057;BME280;48016;50.284;18.860;2023-05-01T00:31:35;98650.94;;;4.99;58.69
62057;BME280;48016;50.284;18.860;2023-05-01T00:34:02;98647.98;;;4.93;58.28
62057;BME280;48016;50.284;18.860;2023-05-01T00:36:30;98648.98;;;4.91;58.04
62057;BME280;48016;50.284;18.860;2023-05-01T00:38:57;98647.42;;;4.90;58.34
62057;BME280;48016;50.284;18.860;2023-05-01T00:41:23;98649.15;;;4.88;58.64
62057;BME280;48016;50.284;18.860;2023-05-01T00:43:50;98647.76;;;4.87;58.31
62057;BME280;48016;50.284;18.860;2023-05-01T00:46:17;98643.68;;;4.85;58.55
62057;BME280;48016;50.284;18.860;2023-05-01T00:48:44;98645.41;;;4.82;58.93
62057;BME280;48016;50.284;18.860;2023-05-01T00:51:11;98648.96;;;4.78;59.35
62057;BME280;48016;50.284;18.860;2023-05-01T00:53:42;98648.98;;;4.72;59.75
62057;BME280;48016;50.284;18.860;2023-05-01T00:56:10;98645.40;;;4.66;60.09
62057;BME280;48016;50.284;18.860;2023-05-01T00:58:37;98644.42;;;4.60;60.35
62057;BME280;48016;50.284;18.860;2023-05-01T01:01:04;98647.52;;;4.54;60.39
62057;BME280;48016;50.284;18.860;2023-05-01T01:03:30;98647.60;;;4.50;60.58
62057;BME280;48016;50.284;18.860;2023-05-01T01:06:08;98647.73;;;4.46;60.63
62057;BME280;48016;50.284;18.860;2023-05-01T01:08:50;98650.81;;;4.44;60.95
62057;BME280;48016;50.284;18.860;2023-05-01T01:11:31;98650.45;;;4.42;61.39
62057;BME280;48016;50.284;18.860;2023-05-01T01:14:10;98645.96;;;4.41;60.99
62057;BME280;48016;50.284;18.860;2023-05-01T01:16:53;98644.85;;;4.40;61.19
62057;BME280;48016;50.284;18.860;2023-05-01T01:22:03;98641.19;;;4.38;60.62
62057;BME280;48016;50.284;18.860;2023-05-01T01:24:55;98637.65;;;4.40;60.57
62057;BME280;48016;50.284;18.860;2023-05-01T01:33:41;98637.30;;;4.45;60.05
62057;BME280;48016;50.284;18.860;2023-05-01T01:36:07;98633.23;;;4.46;59.73
62057;BME280;48016;50.284;18.860;2023-05-01T01:38:45;98628.08;;;4.47;59.27
62057;BME280;48016;50.284;18.860;2023-05-01T01:41:17;98628.28;;;4.50;59.19
62057;BME280;48016;50.284;18.860;2023-05-01T01:44:21;98623.71;;;4.52;58.92
62057;BME280;48016;50.284;18.860;2023-05-01T01:46:50;98620.53;;;4.53;58.53
62057;BME280;48016;50.284;18.860;2023-05-01T01:49:21;98619.41;;;4.56;58.30
62057;BME280;48016;50.284;18.860;2023-05-01T01:51:51;98616.08;;;4.59;58.59
62057;BME280;48016;50.284;18.860;2023-05-01T01:54:26;98613.61;;;4.58;58.49
62057;BME280;48016;50.284;18.860;2023-05-01T01:56:58;98613.98;;;4.57;58.33
62057;BME280;48016;50.284;18.860;2023-05-01T01:59:30;98612.58;;;4.57;58.34
62057;BME280;48016;50.284;18.860;2023-05-01T02:01:59;98608.46;;;4.56;58.41
62057;BME280;48016;50.284;18.860;2023-05-01T02:04:28;98611.75;;;4.55;57.99
62057;BME280;48016;50.284;18.860;2023-05-01T02:06:55;98601.09;;;4.57;57.50
62057;BME280;48016;50.284;18.860;2023-05-01T02:09:24;98598.85;;;4.63;57.20
62057;BME280;48016;50.284;18.860;2023-05-01T02:11:53;98593.66;;;4.69;57.17
62057;BME280;48016;50.284;18.860;2023-05-01T02:14:24;98589.48;;;4.71;57.13
62057;BME280;48016;50.284;18.860;2023-05-01T02:16:51;98589.60;;;4.75;57.03
62057;BME280;48016;50.284;18.860;2023-05-01T02:19:19;98586.70;;;4.76;57.23
62057;BME280;48016;50.284;18.860;2023-05-01T02:21:47;98588.82;;;4.75;57.18
62057;BME280;48016;50.284;18.860;2023-05-01T02:24:15;98584.89;;;4.73;57.50
62057;BME280;48016;50.284;18.860;2023-05-01T02:26:48;98584.90;;;4.72;57.30
62057;BME280;48016;50.284;18.860;2023-05-01T02:29:15;98580.41;;;4.72;57.21
62057;BME280;48016;50.284;18.860;2023-05-01T02:31:42;98581.92;;;4.73;57.17
62057;BME280;48016;50.284;18.860;2023-05-01T02:34:08;98579.91;;;4.72;57.24
62057;BME280;48016;50.284;18.860;2023-05-01T02:36:35;98579.52;;;4.70;57.59
62057;BME280;48016;50.284;18.860;2023-05-01T02:39:02;98582.98;;;4.68;57.40
62057;BME280;48016;50.284;18.860;2023-05-01T02:41:28;98586.23;;;4.67;57.47
62057;BME280;48016;50.284;18.860;2023-05-01T02:44:00;98584.46;;;4.64;57.68
62057;BME280;48016;50.284;18.860;2023-05-01T02:46:30;98579.16;;;4.62;57.70
62057;BME280;48016;50.284;18.860;2023-05-01T02:49:00;98577.39;;;4.61;57.82
62057;BME280;48016;50.284;18.860;2023-05-01T02:51:28;98578.27;;;4.60;57.88
62057;BME280;48016;50.284;18.860;2023-05-01T02:53:58;98578.59;;;4.57;57.76
62057;BME280;48016;50.284;18.860;2023-05-01T02:56:25;98575.84;;;4.55;57.88
62057;BME280;48016;50.284;18.860;2023-05-01T02:58:54;98579.76;;;4.50;57.91
62057;BME280;48016;50.284;18.860;2023-05-01T03:01:21;98578.95;;;4.48;58.17
62057;BME280;48016;50.284;18.860;2023-05-01T03:03:48;98580.05;;;4.45;58.17
62057;BME280;48016;50.284;18.860;2023-05-01T03:06:14;98584.02;;;4.43;58.14
62057;BME280;48016;50.284;18.860;2023-05-01T03:08:41;98580.60;;;4.41;58.38
62057;BME280;48016;50.284;18.860;2023-05-01T03:11:08;98582.41;;;4.40;58.38
62057;BME280;48016;50.284;18.860;2023-05-01T03:13:34;98579.58;;;4.38;58.40
62057;BME280;48016;50.284;18.860;2023-05-01T03:16:01;98579.86;;;4.38;58.24
62057;BME280;48016;50.284;18.860;2023-05-01T03:18:29;98579.66;;;4.36;58.35
62057;BME280;48016;50.284;18.860;2023-05-01T03:20:56;98577.39;;;4.36;58.23
62057;BME280;48016;50.284;18.860;2023-05-01T03:23:23;98578.58;;;4.35;58.33
62057;BME280;48016;50.284;18.860;2023-05-01T03:25:50;98579.53;;;4.34;58.46
62057;BME280;48016;50.284;18.860;2023-05-01T03:28:17;98576.65;;;4.33;58.76
62057;BME280;48016;50.284;18.860;2023-05-01T03:30:43;98572.91;;;4.32;58.68
62057;BME280;48016;50.284;18.860;2023-05-01T03:33:10;98573.86;;;4.30;59.07
62057;BME280;48016;50.284;18.860;2023-05-01T03:35:37;98576.82;;;4.28;59.26
62057;BME280;48016;50.284;18.860;2023-05-01T03:38:03;98577.98;;;4.26;59.44
62057;BME280;48016;50.284;18.860;2023-05-01T03:40:30;98577.57;;;4.25;59.53
62057;BME280;48016;50.284;18.860;2023-05-01T03:42:56;98578.27;;;4.25;59.94
62057;BME280;48016;50.284;18.860;2023-05-01T03:45:23;98576.33;;;4.25;60.16
62057;BME280;48016;50.284;18.860;2023-05-01T03:47:50;98574.19;;;4.26;59.95
62057;BME280;48016;50.284;18.860;2023-05-01T03:50:17;98571.02;;;4.27;60.09
62057;BME280;48016;50.284;18.860;2023-05-01T03:52:43;98568.63;;;4.29;60.10
62057;BME280;48016;50.284;18.860;2023-05-01T03:55:10;98566.65;;;4.33;59.90
62057;BME280;48016;50.284;18.860;2023-05-01T03:57:37;98567.66;;;4.39;59.75
62057;BME280;48016;50.284;18.860;2023-05-01T04:00:04;98566.21;;;4.44;59.88
62057;BME280;48016;50.284;18.860;2023-05-01T04:02:32;98564.36;;;4.49;59.82
62057;BME280;48016;50.284;18.860;2023-05-01T04:04:58;98559.23;;;4.55;59.66
62057;BME280;48016;50.284;18.860;2023-05-01T04:07:26;98558.44;;;4.61;59.73
62057;BME280;48016;50.284;18.860;2023-05-01T04:09:52;98557.05;;;4.67;59.59
62057;BME280;48016;50.284;18.860;2023-05-01T04:12:19;98553.37;;;4.73;59.56
62057;BME280;48016;50.284;18.860;2023-05-01T04:14:45;98552.98;;;4.78;59.50
62057;BME280;48016;50.284;18.860;2023-05-01T04:17:12;98551.52;;;4.86;59.59
62057;BME280;48016;50.284;18.860;2023-05-01T04:19:39;98549.75;;;4.95;59.57
62057;BME280;48016;50.284;18.860;2023-05-01T04:22:06;98551.77;;;5.14;59.28
62057;BME280;48016;50.284;18.860;2023-05-01T04:24:33;98549.09;;;5.37;58.87
62057;BME280;48016;50.284;18.860;2023-05-01T04:26:59;98547.40;;;5.63;58.71
62057;BME280;48016;50.284;18.860;2023-05-01T04:29:26;98549.04;;;5.90;58.47
62057;BME280;48016;50.284;18.860;2023-05-01T04:31:52;98549.42;;;6.15;57.92
62057;BME280;48016;50.284;18.860;2023-05-01T04:34:22;98552.92;;;6.39;57.59
62057;BME280;48016;50.284;18.860;2023-05-01T04:36:48;98553.55;;;6.65;57.37
62057;BME280;48016;50.284;18.860;2023-05-01T04:39:19;98552.36;;;6.87;56.55
62057;BME280;48016;50.284;18.860;2023-05-01T04:41:45;98555.48;;;7.06;56.23
62057;BME280;48016;50.284;18.860;2023-05-01T04:44:15;98557.83;;;7.18;55.84
62057;BME280;48016;50.284;18.860;2023-05-01T04:46:42;98556.23;;;7.32;55.72
62057;BME280;48016;50.284;18.860;2023-05-01T04:49:11;98552.73;;;7.43;54.81
62057;BME280;48016;50.284;18.860;2023-05-01T04:51:37;98558.88;;;7.53;54.95
62057;BME280;48016;50.284;18.860;2023-05-01T04:54:04;98558.67;;;7.64;54.97
62057;BME280;48016;50.284;18.860;2023-05-01T04:56:30;98560.62;;;7.75;54.59
62057;BME280;48016;50.284;18.860;2023-05-01T04:58:57;98555.63;;;7.88;54.53
62057;BME280;48016;50.284;18.860;2023-05-01T05:01:24;98552.09;;;8.05;53.99
62057;BME280;48016;50.284;18.860;2023-05-01T05:03:50;98551.94;;;8.23;53.43
62057;BME280;48016;50.284;18.860;2023-05-01T05:06:17;98551.48;;;8.44;52.38
62057;BME280;48016;50.284;18.860;2023-05-01T05:08:43;98551.26;;;8.68;52.05
62057;BME280;48016;50.284;18.860;2023-05-01T05:11:12;98548.44;;;8.95;51.18
62057;BME280;48016;50.284;18.860;2023-05-01T05:13:39;98554.97;;;9.31;51.05
62057;BME280;48016;50.284;18.860;2023-05-01T05:16:06;98551.81;;;9.70;50.49
62057;BME280;48016;50.284;18.860;2023-05-01T05:18:32;98551.13;;;10.13;49.74
62057;BME280;48016;50.284;18.860;2023-05-01T05:21:05;98548.20;;;10.53;48.07
62057;BME280;48016;50.284;18.860;2023-05-01T05:23:32;98547.10;;;10.90;47.03
62057;BME280;48016;50.284;18.860;2023-05-01T05:25:59;98546.07;;;11.26;46.51
62057;BME280;48016;50.284;18.860;2023-05-01T05:28:27;98543.37;;;11.68;46.40
62057;BME280;48016;50.284;18.860;2023-05-01T05:30:54;98541.46;;;12.11;45.54
62057;BME280;48016;50.284;18.860;2023-05-01T05:33:26;98541.54;;;12.54;44.92
62057;BME280;48016;50.284;18.860;2023-05-01T05:35:57;98545.21;;;12.90;43.16
62057;BME280;48016;50.284;18.860;2023-05-01T05:38:24;98549.70;;;13.19;42.96
62057;BME280;48016;50.284;18.860;2023-05-01T05:40:50;98550.71;;;13.42;42.17
62057;BME280;48016;50.284;18.860;2023-05-01T05:43:19;98548.66;;;13.70;40.57
62057;BME280;48016;50.284;18.860;2023-05-01T05:45:46;98545.00;;;13.93;40.57
62057;BME280;48016;50.284;18.860;2023-05-01T05:48:12;98544.35;;;14.21;40.07
62057;BME280;48016;50.284;18.860;2023-05-01T05:50:39;98543.46;;;14.45;39.08
62057;BME280;48016;50.284;18.860;2023-05-01T05:53:06;98537.76;;;14.52;38.41
62057;BME280;48016;50.284;18.860;2023-05-01T05:55:34;98535.54;;;14.72;39.45
62057;BME280;48016;50.284;18.860;2023-05-01T05:58:01;98536.35;;;14.96;38.34
62057;BME280;48016;50.284;18.860;2023-05-01T06:00:27;98539.93;;;15.24;37.99
62057;BME280;48016;50.284;18.860;2023-05-01T06:02:54;98537.46;;;15.50;37.98
62057;BME280;48016;50.284;18.860;2023-05-01T06:05:21;98537.08;;;15.83;37.79
62057;BME280;48016;50.284;18.860;2023-05-01T06:07:47;98531.89;;;16.12;38.18
62057;BME280;48016;50.284;18.860;2023-05-01T06:10:14;98539.19;;;16.27;37.07
62057;BME280;48016;50.284;18.860;2023-05-01T06:12:40;98541.40;;;16.53;35.78
62057;BME280;48016;50.284;18.860;2023-05-01T06:15:08;98531.70;;;16.68;36.59
62057;BME280;48016;50.284;18.860;2023-05-01T06:17:34;98536.84;;;16.72;34.72
62057;BME280;48016;50.284;18.860;2023-05-01T06:20:02;98538.34;;;16.84;34.80
62057;BME280;48016;50.284;18.860;2023-05-01T06:22:31;98536.74;;;17.03;35.55
62057;BME280;48016;50.284;18.860;2023-05-01T06:24:58;98541.42;;;17.10;34.28
62057;BME280;48016;50.284;18.860;2023-05-01T06:27:24;98542.31;;;17.18;33.63
62057;BME280;48016;50.284;18.860;2023-05-01T06:29:51;98542.14;;;17.26;32.87
62057;BME280;48016;50.284;18.860;2023-05-01T06:32:17;98542.80;;;17.39;32.79
62057;BME280;48016;50.284;18.860;2023-05-01T06:34:44;98544.66;;;17.55;33.10
62057;BME280;48016;50.284;18.860;2023-05-01T06:37:10;98541.55;;;17.73;33.72
62057;BME280;48016;50.284;18.860;2023-05-01T06:39:37;98538.44;;;17.73;33.12
62057;BME280;48016;50.284;18.860;2023-05-01T06:42:04;98537.33;;;17.75;32.25
62057;BME280;48016;50.284;18.860;2023-05-01T06:44:30;98535.78;;;17.76;32.53
62057;BME280;48016;50.284;18.860;2023-05-01T06:46:57;98537.61;;;17.83;32.37
62057;BME280;48016;50.284;18.860;2023-05-01T06:49:23;98538.34;;;17.86;32.12
62057;BME280;48016;50.284;18.860;2023-05-01T06:51:50;98534.51;;;17.94;31.25
62057;BME280;48016;50.284;18.860;2023-05-01T06:54:17;98536.91;;;17.96;31.03
62057;BME280;48016;50.284;18.860;2023-05-01T06:56:43;98533.46;;;17.87;30.47
62057;BME280;48016;50.284;18.860;2023-05-01T06:59:10;98531.10;;;17.88;30.77
62057;BME280;48016;50.284;18.860;2023-05-01T07:01:36;98528.46;;;17.88;30.49
62057;BME280;48016;50.284;18.860;2023-05-01T07:04:03;98525.52;;;17.91;30.01
62057;BME280;48016;50.284;18.860;2023-05-01T07:06:30;98521.77;;;17.93;29.30
62057;BME280;48016;50.284;18.860;2023-05-01T07:08:57;98519.96;;;18.10;30.20
62057;BME280;48016;50.284;18.860;2023-05-01T07:11:24;98517.94;;;18.14;30.41
62057;BME280;48016;50.284;18.860;2023-05-01T07:13:53;98516.69;;;18.16;30.30
62057;BME280;48016;50.284;18.860;2023-05-01T07:16:20;98516.36;;;18.19;29.58
62057;BME280;48016;50.284;18.860;2023-05-01T07:18:46;98521.02;;;18.23;28.95
62057;BME280;48016;50.284;18.860;2023-05-01T07:21:13;98520.45;;;18.24;29.21
62057;BME280;48016;50.284;18.860;2023-05-01T07:23:40;98514.50;;;18.23;29.24
62057;BME280;48016;50.284;18.860;2023-05-01T07:26:06;98514.18;;;18.08;28.68
62057;BME280;48016;50.284;18.860;2023-05-01T07:28:33;98521.70;;;17.83;28.55
62057;BME280;48016;50.284;18.860;2023-05-01T07:30:59;98519.05;;;17.69;29.12
62057;BME280;48016;50.284;18.860;2023-05-01T07:33:27;98517.52;;;17.77;29.81
62057;BME280;48016;50.284;18.860;2023-05-01T07:35:53;98515.85;;;17.74;29.62
62057;BME280;48016;50.284;18.860;2023-05-01T07:38:20;98515.52;;;17.68;29.31
62057;BME280;48016;50.284;18.860;2023-05-01T07:40:47;98513.72;;;17.62;29.20
62057;BME280;48016;50.284;18.860;2023-05-01T07:43:13;98517.00;;;17.55;28.93
62057;BME280;48016;50.284;18.860;2023-05-01T07:45:40;98519.37;;;17.38;28.57
62057;BME280;48016;50.284;18.860;2023-05-01T07:48:07;98519.79;;;17.13;28.84
62057;BME280;48016;50.284;18.860;2023-05-01T07:50:34;98514.92;;;17.23;29.74
62057;BME280;48016;50.284;18.860;2023-05-01T07:53:01;98518.41;;;17.28;29.15
62057;BME280;48016;50.284;18.860;2023-05-01T07:55:28;98516.97;;;17.25;29.27
62057;BME280;48016;50.284;18.860;2023-05-01T07:57:54;98518.79;;;17.28;29.62
62057;BME280;48016;50.284;18.860;2023-05-01T08:00:21;98514.38;;;17.27;29.43
62057;BME280;48016;50.284;18.860;2023-05-01T08:02:48;98513.48;;;17.24;29.29
62057;BME280;48016;50.284;18.860;2023-05-01T08:05:14;98506.98;;;17.16;29.70
62057;BME280;48016;50.284;18.860;2023-05-01T08:07:41;98514.23;;;17.04;29.53
62057;BME280;48016;50.284;18.860;2023-05-01T08:10:08;98510.46;;;17.03;29.16
62057;BME280;48016;50.284;18.860;2023-05-01T08:12:34;98506.17;;;17.06;29.52
62057;BME280;48016;50.284;18.860;2023-05-01T08:15:01;98508.32;;;17.13;29.29
62057;BME280;48016;50.284;18.860;2023-05-01T08:17:28;98508.08;;;17.06;29.21
62057;BME280;48016;50.284;18.860;2023-05-01T08:19:54;98503.59;;;16.85;29.71
62057;BME280;48016;50.284;18.860;2023-05-01T08:22:22;98509.42;;;16.90;30.29
62057;BME280;48016;50.284;18.860;2023-05-01T08:24:49;98507.23;;;17.00;29.69
62057;BME280;48016;50.284;18.860;2023-05-01T08:27:16;98503.81;;;17.03;30.32
62057;BME280;48016;50.284;18.860;2023-05-01T08:29:43;98504.58;;;16.94;29.74
62057;BME280;48016;50.284;18.860;2023-05-01T08:32:10;98496.37;;;16.87;29.92
62057;BME280;48016;50.284;18.860;2023-05-01T08:34:36;98497.32;;;16.67;29.50
62057;BME280;48016;50.284;18.860;2023-05-01T08:37:03;98493.89;;;16.45;29.28
62057;BME280;48016;50.284;18.860;2023-05-01T08:39:30;98494.57;;;16.25;29.94
62057;BME280;48016;50.284;18.860;2023-05-01T08:41:57;98495.77;;;16.20;30.44
62057;BME280;48016;50.284;18.860;2023-05-01T08:44:25;98492.23;;;16.26;30.39
62057;BME280;48016;50.284;18.860;2023-05-01T08:47:11;98493.14;;;16.38;29.96
62057;BME280;48016;50.284;18.860;2023-05-01T08:49:41;98484.63;;;16.49;30.31
62057;BME280;48016;50.284;18.860;2023-05-01T08:52:11;98483.02;;;16.57;30.34
62057;BME280;48016;50.284;18.860;2023-05-01T08:54:42;98486.52;;;16.65;30.52
62057;BME280;48016;50.284;18.860;2023-05-01T08:57:10;98490.02;;;16.75;30.15
62057;BME280;48016;50.284;18.860;2023-05-01T08:59:38;98491.65;;;16.87;31.00
62057;BME280;48016;50.284;18.860;2023-05-01T09:02:07;98482.14;;;17.01;30.53
62057;BME280;48016;50.284;18.860;2023-05-01T09:04:36;98489.24;;;17.09;30.04
62057;BME280;48016;50.284;18.860;2023-05-01T09:07:03;98482.28;;;17.07;29.12
62057;BME280;48016;50.284;18.860;2023-05-01T09:09:30;98483.40;;;17.08;29.63
62057;BME280;48016;50.284;18.860;2023-05-01T09:14:46;98473.84;;;17.18;29.33
62057;BME280;48016;50.284;18.860;2023-05-01T09:17:12;98468.25;;;17.20;29.21
62057;BME280;48016;50.284;18.860;2023-05-01T09:19:40;98465.52;;;17.03;28.71
62057;BME280;48016;50.284;18.860;2023-05-01T09:22:08;98459.90;;;16.85;29.30
62057;BME280;48016;50.284;18.860;2023-05-01T09:24:34;98458.98;;;16.88;30.22
62057;BME280;48016;50.284;18.860;2023-05-01T09:27:01;98452.36;;;16.84;28.47
62057;BME280;48016;50.284;18.860;2023-05-01T09:29:46;98448.73;;;16.71;28.84
62057;BME280;48016;50.284;18.860;2023-05-01T09:32:23;98454.64;;;16.77;29.20
62057;BME280;48016;50.284;18.860;2023-05-01T09:34:51;98450.89;;;16.75;28.25
62057;BME280;48016;50.284;18.860;2023-05-01T09:40:11;98441.77;;;16.58;29.54
62057;BME280;48016;50.284;18.860;2023-05-01T09:42:50;98443.80;;;16.73;28.57
62057;BME280;48016;50.284;18.860;2023-05-01T09:45:17;98434.05;;;16.76;28.84
62057;BME280;48016;50.284;18.860;2023-05-01T09:47:45;98439.19;;;16.81;28.49
62057;BME280;48016;50.284;18.860;2023-05-01T09:50:32;98441.87;;;16.75;27.62
62057;BME280;48016;50.284;18.860;2023-05-01T09:53:00;98435.11;;;16.68;27.65
62057;BME280;48016;50.284;18.860;2023-05-01T09:55:27;98434.30;;;16.72;27.41
62057;BME280;48016;50.284;18.860;2023-05-01T09:57:53;98434.85;;;16.87;28.10
62057;BME280;48016;50.284;18.860;2023-05-01T10:00:20;98436.83;;;16.91;28.01
62057;BME280;48016;50.284;18.860;2023-05-01T10:02:48;98439.69;;;16.90;27.69
62057;BME280;48016;50.284;18.860;2023-05-01T10:05:15;98432.70;;;16.84;27.27
62057;BME280;48016;50.284;18.860;2023-05-01T10:07:55;98424.38;;;16.79;27.93
62057;BME280;48016;50.284;18.860;2023-05-01T10:10:22;98428.92;;;16.86;27.65
62057;BME280;48016;50.284;18.860;2023-05-01T10:12:49;98430.06;;;16.91;27.18
62057;BME280;48016;50.284;18.860;2023-05-01T10:15:16;98428.05;;;16.98;27.14
62057;BME280;48016;50.284;18.860;2023-05-01T10:17:43;98429.48;;;17.06;27.68
62057;BME280;48016;50.284;18.860;2023-05-01T10:20:10;98428.59;;;17.14;27.57
62057;BME280;48016;50.284;18.860;2023-05-01T10:22:40;98422.54;;;17.29;27.88
62057;BME280;48016;50.284;18.860;2023-05-01T10:25:08;98414.16;;;17.41;27.76
62057;BME280;48016;50.284;18.860;2023-05-01T10:27:38;98415.48;;;17.49;26.50
62057;BME280;48016;50.284;18.860;2023-05-01T10:30:07;98407.90;;;17.46;25.85
62057;BME280;48016;50.284;18.860;2023-05-01T10:32:35;98410.34;;;17.50;26.68
62057;BME280;48016;50.284;18.860;2023-05-01T10:35:11;98405.96;;;17.59;26.66
62057;BME280;48016;50.284;18.860;2023-05-01T10:37:50;98399.23;;;17.68;26.79
62057;BME280;48016;50.284;18.860;2023-05-01T10:43:15;98396.56;;;17.90;27.38
62057;BME280;48016;50.284;18.860;2023-05-01T10:45:42;98393.68;;;18.00;27.03
62057;BME280;48016;50.284;18.860;2023-05-01T10:48:09;98390.58;;;18.02;26.78
62057;BME280;48016;50.284;18.860;2023-05-01T10:51:16;98390.41;;;18.13;27.16
62057;BME280;48016;50.284;18.860;2023-05-01T10:53:44;98388.64;;;18.20;27.30
62057;BME280;48016;50.284;18.860;2023-05-01T11:01:34;98390.21;;;18.31;25.16
62057;BME280;48016;50.284;18.860;2023-05-01T11:06:35;98388.52;;;18.34;25.29
62057;BME280;48016;50.284;18.860;2023-05-01T11:12:05;98377.05;;;18.32;25.22
62057;BME280;48016;50.284;18.860;2023-05-01T11:20:08;98358.58;;;17.91;24.70
62057;BME280;48016;50.284;18.860;2023-05-01T11:22:37;98353.01;;;17.87;25.35
62057;BME280;48016;50.284;18.860;2023-05-01T11:28:47;98347.52;;;17.93;25.96
62057;BME280;48016;50.284;18.860;2023-05-01T11:31:16;98345.10;;;18.06;25.56
62057;BME280;48016;50.284;18.860;2023-05-01T11:33:44;98335.89;;;18.19;26.52
62057;BME280;48016;50.284;18.860;2023-05-01T11:36:10;98334.04;;;18.29;26.38
62057;BME280;48016;50.284;18.860;2023-05-01T11:38:37;98336.15;;;18.36;26.66
62057;BME280;48016;50.284;18.860;2023-05-01T11:41:05;98330.66;;;18.39;25.90
62057;BME280;48016;50.284;18.860;2023-05-01T11:43:31;98327.73;;;18.32;25.35
62057;BME280;48016;50.284;18.860;2023-05-01T11:45:58;98323.38;;;18.26;25.13
62057;BME280;48016;50.284;18.860;2023-05-01T11:48:28;98320.87;;;18.28;25.46
62057;BME280;48016;50.284;18.860;2023-05-01T11:50:55;98316.28;;;18.28;26.19
62057;BME280;48016;50.284;18.860;2023-05-01T11:53:22;98316.17;;;18.30;25.45
62057;BME280;48016;50.284;18.860;2023-05-01T11:55:49;98311.14;;;18.28;25.96
62057;BME280;48016;50.284;18.860;2023-05-01T11:58:16;98310.48;;;18.33;26.54
62057;BME280;48016;50.284;18.860;2023-05-01T12:00:43;98313.98;;;18.35;26.13
62057;BME280;48016;50.284;18.860;2023-05-01T12:03:13;98313.18;;;18.29;26.55
62057;BME280;48016;50.284;18.860;2023-05-01T12:05:42;98303.35;;;18.34;26.80
62057;BME280;48016;50.284;18.860;2023-05-01T12:08:21;98293.44;;;18.34;26.87
62057;BME280;48016;50.284;18.860;2023-05-01T12:10:53;98297.63;;;18.38;27.56
62057;BME280;48016;50.284;18.860;2023-05-01T12:13:23;98294.70;;;18.40;28.13
62057;BME280;48016;50.284;18.860;2023-05-01T12:15:52;98292.64;;;18.41;27.64
62057;BME280;48016;50.284;18.860;2023-05-01T12:18:19;98285.20;;;18.41;27.90
62057;BME280;48016;50.284;18.860;2023-05-01T12:20:50;98286.67;;;18.46;28.29
62057;BME280;48016;50.284;18.860;2023-05-01T12:23:19;98288.39;;;18.45;28.28
62057;BME280;48016;50.284;18.860;2023-05-01T12:25:45;98284.75;;;18.41;28.17
62057;BME280;48016;50.284;18.860;2023-05-01T12:28:18;98282.48;;;18.40;28.41
62057;BME280;48016;50.284;18.860;2023-05-01T12:30:46;98277.42;;;18.33;28.65
62057;BME280;48016;50.284;18.860;2023-05-01T12:33:18;98277.91;;;18.36;29.17
62057;BME280;48016;50.284;18.860;2023-05-01T12:35:46;98269.83;;;18.40;29.58
62057;BME280;48016;50.284;18.860;2023-05-01T12:38:20;98269.27;;;18.36;29.83
62057;BME280;48016;50.284;18.860;2023-05-01T12:40:54;98269.15;;;18.36;29.59
62057;BME280;48016;50.284;18.860;2023-05-01T12:43:33;98265.46;;;18.40;30.08
62057;BME280;48016;50.284;18.860;2023-05-01T12:46:01;98256.78;;;18.46;30.50
62057;BME280;48016;50.284;18.860;2023-05-01T12:48:29;98252.02;;;18.50;30.38
62057;BME280;48016;50.284;18.860;2023-05-01T12:50:56;98246.69;;;18.55;30.59
62057;BME280;48016;50.284;18.860;2023-05-01T12:53:24;98243.33;;;18.61;30.61
62057;BME280;48016;50.284;18.860;2023-05-01T12:55:54;98237.84;;;18.65;30.63
62057;BME280;48016;50.284;18.860;2023-05-01T12:58:21;98237.35;;;18.67;30.52
62057;BME280;48016;50.284;18.860;2023-05-01T13:00:52;98231.71;;;18.67;30.94
62057;BME280;48016;50.284;18.860;2023-05-01T13:03:25;98233.31;;;18.67;30.82
62057;BME280;48016;50.284;18.860;2023-05-01T13:05:58;98225.83;;;18.64;30.27
62057;BME280;48016;50.284;18.860;2023-05-01T13:08:35;98214.95;;;18.51;30.26
62057;BME280;48016;50.284;18.860;2023-05-01T13:11:13;98210.45;;;18.42;31.19
62057;BME280;48016;50.284;18.860;2023-05-01T13:13:40;98213.56;;;18.45;31.06
62057;BME280;48016;50.284;18.860;2023-05-01T13:16:12;98212.34;;;18.45;31.06
62057;BME280;48016;50.284;18.860;2023-05-01T13:18:46;98212.14;;;18.49;31.25
62057;BME280;48016;50.284;18.860;2023-05-01T13:21:15;98206.02;;;18.51;31.43
62057;BME280;48016;50.284;18.860;2023-05-01T13:23:52;98203.21;;;18.52;31.70
62057;BME280;48016;50.284;18.860;2023-05-01T13:26:33;98203.00;;;18.54;31.99
62057;BME280;48016;50.284;18.860;2023-05-01T13:29:03;98205.94;;;18.59;31.90
62057;BME280;48016;50.284;18.860;2023-05-01T13:31:30;98203.66;;;18.63;31.96
62057;BME280;48016;50.284;18.860;2023-05-01T13:33:58;98198.38;;;18.67;32.44
62057;BME280;48016;50.284;18.860;2023-05-01T13:36:25;98195.86;;;18.67;31.91
62057;BME280;48016;50.284;18.860;2023-05-01T13:38:57;98190.37;;;18.65;31.72
62057;BME280;48016;50.284;18.860;2023-05-01T13:41:25;98186.44;;;18.65;31.46